sensor_id;sensor_type;location;lat;lon;timestamp;P1;durP1;ratioP1;P2;durP2;ratioP2
49626;SDS011;35527;54.616;39.786;2023-05-10T00:01:52;5.53;;;3.00;;
49626;SDS011;35527;54.616;39.786;2023-05-10T00:04:55;6.65;;;2.75;;
49626;SDS011;35527;54.616;39.786;2023-05-10T00:08:04;5.85;;;2.92;;
49626;SDS011;35527;54.616;39.786;2023-05-10T00:11:07;8.18;;;2.17;;
49626;SDS011;35527;54.616;39.786;2023-05-10T00:14:16;5.50;;;2.60;;
49626;SDS011;35527;54.616;39.786;2023-05-10T00:17:20;8.77;;;2.75;;
49626;SDS011;35527;54.616;39.786;2023-05-10T00:20:26;3.83;;;1.83;;
49626;SDS011;35527;54.616;39.786;2023-05-10T00:23:28;6.50;;;3.15;;
49626;SDS011;35527;54.616;39.786;2023-05-10T00:26:33;6.75;;;3.38;;
49626;SDS011;35527;54.616;39.786;2023-05-10T00:29:37;5.13;;;2.60;;
49626;SDS011;35527;54.616;39.786;2023-05-10T00:32:41;4.32;;;2.50;;
49626;SDS011;35527;54.616;39.786;2023-05-10T00:35:45;4.45;;;2.25;;
49626;SDS011;35527;54.616;39.786;2023-05-10T00:38:48;5.10;;;2.13;;
49626;SDS011;35527;54.616;39.786;2023-05-10T00:41:55;5.95;;;2.83;;
49626;SDS011;35527;54.616;39.786;2023-05-10T00:45:01;5.78;;;2.80;;
49626;SDS011;35527;54.616;39.786;2023-05-10T00:48:05;7.32;;;2.58;;
49626;SDS011;35527;54.616;39.786;2023-05-10T00:51:08;6.53;;;3.10;;
49626;SDS011;35527;54.616;39.786;2023-05-10T00:54:11;5.60;;;2.85;;
49626;SDS011;35527;54.616;39.786;2023-05-10T00:57:20;6.82;;;2.20;;
49626;SDS011;35527;54.616;39.786;2023-05-10T01:00:24;7.50;;;2.90;;
49626;SDS011;35527;54.616;39.786;2023-05-10T01:03:28;4.38;;;1.92;;
49626;SDS011;35527;54.616;39.786;2023-05-10T01:06:35;4.60;;;2.50;;
49626;SDS011;35527;54.616;39.786;2023-05-10T01:09:45;5.13;;;2.47;;
49626;SDS011;35527;54.616;39.786;2023-05-10T01:12:49;6.82;;;2.70;;
49626;SDS011;35527;54.616;39.786;2023-05-10T01:15:51;4.68;;;1.83;;
49626;SDS011;35527;54.616;39.786;2023-05-10T01:18:54;7.63;;;2.90;;
49626;SDS011;35527;54.616;39.786;2023-05-10T01:22:02;5.00;;;2.10;;
49626;SDS011;35527;54.616;39.786;2023-05-10T01:35:19;8.18;;;2.80;;
49626;SDS011;35527;54.616;39.786;2023-05-10T01:38:42;6.93;;;2.05;;
49626;SDS011;35527;54.616;39.786;2023-05-10T01:45:14;3.65;;;1.70;;
49626;SDS011;35527;54.616;39.786;2023-05-10T01:48:30;3.10;;;1.52;;
49626;SDS011;35527;54.616;39.786;2023-05-10T01:51:39;4.97;;;2.65;;
49626;SDS011;35527;54.616;39.786;2023-05-10T01:54:51;4.45;;;2.47;;
49626;SDS011;35527;54.616;39.786;2023-05-10T01:58:06;4.28;;;2.22;;
49626;SDS011;35527;54.616;39.786;2023-05-10T02:01:19;6.22;;;2.20;;
49626;SDS011;35527;54.616;39.786;2023-05-10T02:04:25;3.92;;;1.50;;
49626;SDS011;35527;54.616;39.786;2023-05-10T02:07:30;5.40;;;2.60;;
49626;SDS011;35527;54.616;39.786;2023-05-10T02:10:36;4.10;;;1.77;;
49626;SDS011;35527;54.616;39.786;2023-05-10T02:13:44;4.10;;;2.03;;
49626;SDS011;35527;54.616;39.786;2023-05-10T02:16:50;4.32;;;1.77;;
49626;SDS011;35527;54.616;39.786;2023-05-10T02:19:56;6.65;;;2.50;;
49626;SDS011;35527;54.616;39.786;2023-05-10T02:23:01;3.63;;;1.90;;
49626;SDS011;35527;54.616;39.786;2023-05-10T02:26:07;5.78;;;2.42;;
49626;SDS011;35527;54.616;39.786;2023-05-10T02:29:11;3.83;;;2.20;;
49626;SDS011;35527;54.616;39.786;2023-05-10T02:32:17;5.03;;;2.50;;
49626;SDS011;35527;54.616;39.786;2023-05-10T02:35:21;5.18;;;2.40;;
49626;SDS011;35527;54.616;39.786;2023-05-10T02:38:27;4.00;;;1.50;;
49626;SDS011;35527;54.616;39.786;2023-05-10T02:41:34;5.07;;;2.40;;
49626;SDS011;35527;54.616;39.786;2023-05-10T02:44:52;5.75;;;2.08;;
49626;SDS011;35527;54.616;39.786;2023-05-10T02:48:01;6.35;;;2.67;;
49626;SDS011;35527;54.616;39.786;2023-05-10T02:51:06;5.75;;;2.63;;
49626;SDS011;35527;54.616;39.786;2023-05-10T02:54:22;5.07;;;2.28;;
49626;SDS011;35527;54.616;39.786;2023-05-10T02:57:32;6.75;;;2.40;;
49626;SDS011;35527;54.616;39.786;2023-05-10T03:00:37;3.40;;;1.48;;
49626;SDS011;35527;54.616;39.786;2023-05-10T03:03:40;6.93;;;2.10;;
49626;SDS011;35527;54.616;39.786;2023-05-10T03:06:44;6.97;;;2.13;;
49626;SDS011;35527;54.616;39.786;2023-05-10T03:09:48;4.72;;;1.58;;
49626;SDS011;35527;54.616;39.786;2023-05-10T03:16:09;3.85;;;1.70;;
49626;SDS011;35527;54.616;39.786;2023-05-10T03:19:24;6.22;;;2.30;;
49626;SDS011;35527;54.616;39.786;2023-05-10T03:22:39;6.10;;;2.58;;
49626;SDS011;35527;54.616;39.786;2023-05-10T03:25:48;7.05;;;2.20;;
49626;SDS011;35527;54.616;39.786;2023-05-10T03:28:53;8.25;;;2.35;;
49626;SDS011;35527;54.616;39.786;2023-05-10T03:31:58;8.38;;;2.28;;
49626;SDS011;35527;54.616;39.786;2023-05-10T03:35:10;6.22;;;2.33;;
49626;SDS011;35527;54.616;39.786;2023-05-10T03:38:14;7.40;;;1.70;;
49626;SDS011;35527;54.616;39.786;2023-05-10T03:41:19;9.38;;;2.50;;
49626;SDS011;35527;54.616;39.786;2023-05-10T03:44:23;13.60;;;2.90;;
49626;SDS011;35527;54.616;39.786;2023-05-10T03:47:28;8.88;;;2.70;;
49626;SDS011;35527;54.616;39.786;2023-05-10T03:50:33;4.22;;;1.90;;
49626;SDS011;35527;54.616;39.786;2023-05-10T03:53:37;7.03;;;2.10;;
49626;SDS011;35527;54.616;39.786;2023-05-10T03:56:43;6.70;;;2.72;;
49626;SDS011;35527;54.616;39.786;2023-05-10T03:59:47;9.13;;;2.13;;
49626;SDS011;35527;54.616;39.786;2023-05-10T04:02:51;9.10;;;2.60;;
49626;SDS011;35527;54.616;39.786;2023-05-10T04:06:01;7.28;;;3.00;;
49626;SDS011;35527;54.616;39.786;2023-05-10T04:09:07;8.65;;;2.55;;
49626;SDS011;35527;54.616;39.786;2023-05-10T04:12:13;14.40;;;3.78;;
49626;SDS011;35527;54.616;39.786;2023-05-10T04:15:19;4.60;;;2.17;;
49626;SDS011;35527;54.616;39.786;2023-05-10T04:18:27;6.43;;;2.10;;
49626;SDS011;35527;54.616;39.786;2023-05-10T04:21:29;8.60;;;2.65;;
49626;SDS011;35527;54.616;39.786;2023-05-10T04:24:34;8.05;;;2.67;;
49626;SDS011;35527;54.616;39.786;2023-05-10T04:27:38;7.28;;;2.20;;
49626;SDS011;35527;54.616;39.786;2023-05-10T04:30:41;8.88;;;3.30;;
49626;SDS011;35527;54.616;39.786;2023-05-10T04:33:45;9.10;;;2.53;;
49626;SDS011;35527;54.616;39.786;2023-05-10T04:40:19;8.77;;;2.55;;
49626;SDS011;35527;54.616;39.786;2023-05-10T04:43:23;12.15;;;2.95;;
49626;SDS011;35527;54.616;39.786;2023-05-10T04:46:27;8.32;;;2.50;;
49626;SDS011;35527;54.616;39.786;2023-05-10T04:49:32;7.93;;;2.22;;
49626;SDS011;35527;54.616;39.786;2023-05-10T04:52:35;9.68;;;2.60;;
49626;SDS011;35527;54.616;39.786;2023-05-10T04:55:40;7.63;;;2.20;;
49626;SDS011;35527;54.616;39.786;2023-05-10T04:58:43;9.43;;;2.47;;
49626;SDS011;35527;54.616;39.786;2023-05-10T05:01:47;6.35;;;2.08;;
49626;SDS011;35527;54.616;39.786;2023-05-10T05:04:52;9.25;;;2.42;;
49626;SDS011;35527;54.616;39.786;2023-05-10T05:07:54;7.88;;;2.40;;
49626;SDS011;35527;54.616;39.786;2023-05-10T05:10:58;11.27;;;2.10;;
49626;SDS011;35527;54.616;39.786;2023-05-10T05:14:02;5.88;;;2.20;;
49626;SDS011;35527;54.616;39.786;2023-05-10T05:17:04;4.28;;;2.00;;
49626;SDS011;35527;54.616;39.786;2023-05-10T05:20:07;7.70;;;2.05;;
49626;SDS011;35527;54.616;39.786;2023-05-10T05:23:13;5.22;;;2.15;;
49626;SDS011;35527;54.616;39.786;2023-05-10T05:26:17;6.70;;;1.75;;
49626;SDS011;35527;54.616;39.786;2023-05-10T05:29:23;6.20;;;2.10;;
49626;SDS011;35527;54.616;39.786;2023-05-10T05:32:26;6.70;;;2.17;;
49626;SDS011;35527;54.616;39.786;2023-05-10T05:35:29;7.20;;;2.10;;
49626;SDS011;35527;54.616;39.786;2023-05-10T05:38:34;6.25;;;1.60;;
49626;SDS011;35527;54.616;39.786;2023-05-10T05:41:39;7.28;;;1.90;;
49626;SDS011;35527;54.616;39.786;2023-05-10T05:44:42;4.78;;;1.58;;
49626;SDS011;35527;54.616;39.786;2023-05-10T05:47:46;4.47;;;1.70;;
49626;SDS011;35527;54.616;39.786;2023-05-10T05:50:53;6.77;;;1.90;;
49626;SDS011;35527;54.616;39.786;2023-05-10T05:53:57;8.40;;;1.77;;
49626;SDS011;35527;54.616;39.786;2023-05-10T05:57:00;4.43;;;1.40;;
49626;SDS011;35527;54.616;39.786;2023-05-10T06:00:04;6.75;;;1.80;;
49626;SDS011;35527;54.616;39.786;2023-05-10T06:03:16;3.10;;;1.40;;
49626;SDS011;35527;54.616;39.786;2023-05-10T06:06:21;3.75;;;1.40;;
49626;SDS011;35527;54.616;39.786;2023-05-10T06:09:25;7.00;;;1.70;;
49626;SDS011;35527;54.616;39.786;2023-05-10T06:12:29;4.45;;;1.52;;
49626;SDS011;35527;54.616;39.786;2023-05-10T06:15:35;5.70;;;1.70;;
49626;SDS011;35527;54.616;39.786;2023-05-10T06:18:37;5.22;;;1.90;;
49626;SDS011;35527;54.616;39.786;2023-05-10T06:21:41;5.82;;;1.90;;
49626;SDS011;35527;54.616;39.786;2023-05-10T06:24:44;4.70;;;1.70;;
49626;SDS011;35527;54.616;39.786;2023-05-10T06:27:51;3.15;;;1.50;;
49626;SDS011;35527;54.616;39.786;2023-05-10T06:31:00;3.80;;;1.30;;
49626;SDS011;35527;54.616;39.786;2023-05-10T06:34:04;2.40;;;1.38;;
49626;SDS011;35527;54.616;39.786;2023-05-10T06:37:10;3.22;;;1.20;;
49626;SDS011;35527;54.616;39.786;2023-05-10T06:40:16;3.08;;;1.50;;
49626;SDS011;35527;54.616;39.786;2023-05-10T06:43:19;2.75;;;1.10;;
49626;SDS011;35527;54.616;39.786;2023-05-10T06:46:27;3.92;;;1.50;;
49626;SDS011;35527;54.616;39.786;2023-05-10T06:49:29;6.63;;;2.10;;
49626;SDS011;35527;54.616;39.786;2023-05-10T06:52:35;3.70;;;1.55;;
49626;SDS011;35527;54.616;39.786;2023-05-10T06:55:38;2.73;;;1.30;;
49626;SDS011;35527;54.616;39.786;2023-05-10T06:58:44;5.80;;;1.52;;
49626;SDS011;35527;54.616;39.786;2023-05-10T07:01:49;5.00;;;1.60;;
49626;SDS011;35527;54.616;39.786;2023-05-10T07:04:54;4.38;;;1.35;;
49626;SDS011;35527;54.616;39.786;2023-05-10T07:11:03;10.25;;;2.00;;
49626;SDS011;35527;54.616;39.786;2023-05-10T07:14:11;3.63;;;1.27;;
49626;SDS011;35527;54.616;39.786;2023-05-10T07:17:14;10.05;;;2.25;;
49626;SDS011;35527;54.616;39.786;2023-05-10T07:20:17;7.10;;;2.20;;
49626;SDS011;35527;54.616;39.786;2023-05-10T07:23:19;3.72;;;1.48;;
49626;SDS011;35527;54.616;39.786;2023-05-10T07:26:23;3.83;;;1.20;;
49626;SDS011;35527;54.616;39.786;2023-05-10T07:32:31;4.38;;;1.60;;
49626;SDS011;35527;54.616;39.786;2023-05-10T07:35:34;5.03;;;1.55;;
49626;SDS011;35527;54.616;39.786;2023-05-10T07:38:40;5.78;;;1.30;;
49626;SDS011;35527;54.616;39.786;2023-05-10T07:41:44;2.33;;;1.20;;
49626;SDS011;35527;54.616;39.786;2023-05-10T07:44:47;2.40;;;1.20;;
49626;SDS011;35527;54.616;39.786;2023-05-10T07:47:51;3.85;;;1.95;;
49626;SDS011;35527;54.616;39.786;2023-05-10T07:50:54;2.97;;;1.20;;
49626;SDS011;35527;54.616;39.786;2023-05-10T07:53:58;3.70;;;1.33;;
49626;SDS011;35527;54.616;39.786;2023-05-10T07:57:00;3.28;;;1.55;;
49626;SDS011;35527;54.616;39.786;2023-05-10T08:00:05;2.78;;;1.20;;
49626;SDS011;35527;54.616;39.786;2023-05-10T08:03:16;3.47;;;1.30;;
49626;SDS011;35527;54.616;39.786;2023-05-10T08:06:19;3.25;;;1.20;;
49626;SDS011;35527;54.616;39.786;2023-05-10T08:09:24;2.88;;;1.35;;
49626;SDS011;35527;54.616;39.786;2023-05-10T08:12:27;2.15;;;1.30;;
49626;SDS011;35527;54.616;39.786;2023-05-10T08:15:30;7.57;;;1.38;;
49626;SDS011;35527;54.616;39.786;2023-05-10T08:18:36;4.05;;;1.23;;
49626;SDS011;35527;54.616;39.786;2023-05-10T08:21:39;3.60;;;1.27;;
49626;SDS011;35527;54.616;39.786;2023-05-10T08:24:45;2.63;;;1.20;;
49626;SDS011;35527;54.616;39.786;2023-05-10T08:27:50;2.47;;;1.20;;
49626;SDS011;35527;54.616;39.786;2023-05-10T08:30:52;3.17;;;1.27;;
49626;SDS011;35527;54.616;39.786;2023-05-10T08:33:55;2.95;;;1.20;;
49626;SDS011;35527;54.616;39.786;2023-05-10T08:36:59;3.03;;;1.30;;
49626;SDS011;35527;54.616;39.786;2023-05-10T08:40:03;2.85;;;1.30;;
49626;SDS011;35527;54.616;39.786;2023-05-10T08:43:07;2.65;;;1.23;;
49626;SDS011;35527;54.616;39.786;2023-05-10T08:46:12;3.10;;;1.40;;
49626;SDS011;35527;54.616;39.786;2023-05-10T08:49:21;3.00;;;1.17;;
49626;SDS011;35527;54.616;39.786;2023-05-10T08:52:26;2.60;;;1.20;;
49626;SDS011;35527;54.616;39.786;2023-05-10T08:55:33;4.40;;;1.30;;
49626;SDS011;35527;54.616;39.786;2023-05-10T08:58:39;2.97;;;1.30;;
49626;SDS011;35527;54.616;39.786;2023-05-10T09:01:44;2.38;;;1.05;;
49626;SDS011;35527;54.616;39.786;2023-05-10T09:04:54;2.85;;;1.27;;
49626;SDS011;35527;54.616;39.786;2023-05-10T09:07:56;2.95;;;1.45;;
49626;SDS011;35527;54.616;39.786;2023-05-10T09:11:03;3.75;;;1.33;;
49626;SDS011;35527;54.616;39.786;2023-05-10T09:14:07;2.08;;;1.20;;
49626;SDS011;35527;54.616;39.786;2023-05-10T09:17:14;4.53;;;1.35;;
49626;SDS011;35527;54.616;39.786;2023-05-10T09:20:17;2.58;;;1.13;;
49626;SDS011;35527;54.616;39.786;2023-05-10T09:23:21;2.90;;;1.30;;
49626;SDS011;35527;54.616;39.786;2023-05-10T09:26:23;2.38;;;1.27;;
49626;SDS011;35527;54.616;39.786;2023-05-10T09:29:39;3.20;;;1.55;;
49626;SDS011;35527;54.616;39.786;2023-05-10T09:35:47;2.35;;;1.20;;
49626;SDS011;35527;54.616;39.786;2023-05-10T09:38:54;3.22;;;1.27;;
49626;SDS011;35527;54.616;39.786;2023-05-10T09:42:07;4.10;;;1.42;;
49626;SDS011;35527;54.616;39.786;2023-05-10T09:45:11;4.35;;;1.52;;
49626;SDS011;35527;54.616;39.786;2023-05-10T09:48:13;2.75;;;1.40;;
49626;SDS011;35527;54.616;39.786;2023-05-10T09:51:20;3.90;;;1.33;;
49626;SDS011;35527;54.616;39.786;2023-05-10T09:54:27;2.50;;;1.40;;
49626;SDS011;35527;54.616;39.786;2023-05-10T09:57:31;2.25;;;1.50;;
49626;SDS011;35527;54.616;39.786;2023-05-10T10:00:35;3.17;;;1.40;;
49626;SDS011;35527;54.616;39.786;2023-05-10T10:03:42;2.13;;;1.13;;
49626;SDS011;35527;54.616;39.786;2023-05-10T10:10:06;3.35;;;1.40;;
49626;SDS011;35527;54.616;39.786;2023-05-10T10:13:14;2.08;;;1.38;;
49626;SDS011;35527;54.616;39.786;2023-05-10T10:19:25;2.53;;;1.27;;
49626;SDS011;35527;54.616;39.786;2023-05-10T10:22:31;3.08;;;1.20;;
49626;SDS011;35527;54.616;39.786;2023-05-10T10:25:34;2.78;;;1.00;;
49626;SDS011;35527;54.616;39.786;2023-05-10T10:28:41;4.13;;;1.23;;
49626;SDS011;35527;54.616;39.786;2023-05-10T10:35:38;1.75;;;1.15;;
49626;SDS011;35527;54.616;39.786;2023-05-10T10:41:58;3.25;;;1.13;;
49626;SDS011;35527;54.616;39.786;2023-05-10T10:45:11;2.92;;;1.30;;
49626;SDS011;35527;54.616;39.786;2023-05-10T10:48:22;3.92;;;1.40;;
49626;SDS011;35527;54.616;39.786;2023-05-10T10:51:28;2.50;;;1.30;;
49626;SDS011;35527;54.616;39.786;2023-05-10T10:54:34;3.80;;;1.35;;
49626;SDS011;35527;54.616;39.786;2023-05-10T11:07:18;3.53;;;1.40;;
49626;SDS011;35527;54.616;39.786;2023-05-10T11:10:26;3.40;;;1.20;;
49626;SDS011;35527;54.616;39.786;2023-05-10T11:13:39;3.45;;;1.30;;
49626;SDS011;35527;54.616;39.786;2023-05-10T11:16:42;14.50;;;3.38;;
49626;SDS011;35527;54.616;39.786;2023-05-10T11:20:02;7.25;;;1.92;;
49626;SDS011;35527;54.616;39.786;2023-05-10T11:23:23;7.60;;;1.60;;
49626;SDS011;35527;54.616;39.786;2023-05-10T11:26:33;2.95;;;1.30;;
49626;SDS011;35527;54.616;39.786;2023-05-10T11:29:38;4.32;;;1.20;;
49626;SDS011;35527;54.616;39.786;2023-05-10T11:32:41;2.35;;;1.00;;
49626;SDS011;35527;54.616;39.786;2023-05-10T11:35:46;3.33;;;1.10;;
49626;SDS011;35527;54.616;39.786;2023-05-10T11:38:51;2.15;;;1.10;;
49626;SDS011;35527;54.616;39.786;2023-05-10T11:41:55;3.10;;;1.17;;
49626;SDS011;35527;54.616;39.786;2023-05-10T11:45:00;3.95;;;1.30;;
49626;SDS011;35527;54.616;39.786;2023-05-10T11:48:05;2.53;;;1.40;;
49626;SDS011;35527;54.616;39.786;2023-05-10T11:51:09;2.42;;;1.10;;
49626;SDS011;35527;54.616;39.786;2023-05-10T11:54:13;3.63;;;1.20;;
49626;SDS011;35527;54.616;39.786;2023-05-10T11:57:18;3.40;;;1.50;;
49626;SDS011;35527;54.616;39.786;2023-05-10T12:00:24;3.97;;;1.30;;
49626;SDS011;35527;54.616;39.786;2023-05-10T12:03:27;3.58;;;1.10;;
49626;SDS011;35527;54.616;39.786;2023-05-10T12:06:32;2.27;;;1.20;;
49626;SDS011;35527;54.616;39.786;2023-05-10T12:10:26;3.03;;;1.30;;
49626;SDS011;35527;54.616;39.786;2023-05-10T12:13:15;4.45;;;1.40;;
49626;SDS011;35527;54.616;39.786;2023-05-10T12:16:23;1.92;;;1.02;;
49626;SDS011;35527;54.616;39.786;2023-05-10T12:22:30;3.97;;;1.30;;
49626;SDS011;35527;54.616;39.786;2023-05-10T12:25:38;5.22;;;1.48;;
49626;SDS011;35527;54.616;39.786;2023-05-10T12:28:44;4.80;;;1.50;;
49626;SDS011;35527;54.616;39.786;2023-05-10T12:31:51;3.17;;;1.40;;
49626;SDS011;35527;54.616;39.786;2023-05-10T12:34:58;4.30;;;1.40;;
49626;SDS011;35527;54.616;39.786;2023-05-10T12:38:22;3.30;;;1.40;;
49626;SDS011;35527;54.616;39.786;2023-05-10T12:41:46;2.92;;;1.30;;
49626;SDS011;35527;54.616;39.786;2023-05-10T12:44:49;3.33;;;1.40;;
49626;SDS011;35527;54.616;39.786;2023-05-10T12:47:58;1.90;;;1.20;;
49626;SDS011;35527;54.616;39.786;2023-05-10T12:51:03;3.30;;;1.33;;
49626;SDS011;35527;54.616;39.786;2023-05-10T12:54:08;2.10;;;1.00;;
49626;SDS011;35527;54.616;39.786;2023-05-10T12:57:12;4.15;;;1.50;;
49626;SDS011;35527;54.616;39.786;2023-05-10T13:00:15;3.83;;;1.30;;
49626;SDS011;35527;54.616;39.786;2023-05-10T13:03:21;1.80;;;1.00;;
49626;SDS011;35527;54.616;39.786;2023-05-10T13:06:55;3.60;;;1.30;;
49626;SDS011;35527;54.616;39.786;2023-05-10T13:10:05;2.28;;;1.10;;
49626;SDS011;35527;54.616;39.786;2023-05-10T13:13:08;3.38;;;1.35;;
49626;SDS011;35527;54.616;39.786;2023-05-10T13:16:13;2.97;;;1.10;;
49626;SDS011;35527;54.616;39.786;2023-05-10T13:19:15;2.92;;;1.00;;
49626;SDS011;35527;54.616;39.786;2023-05-10T13:25:29;4.57;;;1.10;;
49626;SDS011;35527;54.616;39.786;2023-05-10T13:28:33;4.95;;;1.80;;
49626;SDS011;35527;54.616;39.786;2023-05-10T13:31:37;2.85;;;1.27;;
49626;SDS011;35527;54.616;39.786;2023-05-10T13:34:41;3.42;;;1.20;;
49626;SDS011;35527;54.616;39.786;2023-05-10T13:37:46;3.38;;;1.27;;
49626;SDS011;35527;54.616;39.786;2023-05-10T13:40:48;4.22;;;1.38;;
49626;SDS011;35527;54.616;39.786;2023-05-10T13:43:54;2.78;;;1.30;;
49626;SDS011;35527;54.616;39.786;2023-05-10T13:46:59;5.10;;;1.60;;
49626;SDS011;35527;54.616;39.786;2023-05-10T13:50:05;3.28;;;1.30;;
49626;SDS011;35527;54.616;39.786;2023-05-10T13:53:09;2.65;;;1.20;;
49626;SDS011;35527;54.616;39.786;2023-05-10T13:56:38;3.25;;;1.20;;
49626;SDS011;35527;54.616;39.786;2023-05-10T13:59:43;3.50;;;1.60;;
49626;SDS011;35527;54.616;39.786;2023-05-10T14:02:51;3.30;;;1.20;;
49626;SDS011;35527;54.616;39.786;2023-05-10T14:05:54;5.03;;;1.40;;
49626;SDS011;35527;54.616;39.786;2023-05-10T14:08:57;3.88;;;1.30;;
49626;SDS011;35527;54.616;39.786;2023-05-10T14:12:00;3.15;;;1.30;;
49626;SDS011;35527;54.616;39.786;2023-05-10T14:15:06;2.58;;;1.30;;
49626;SDS011;35527;54.616;39.786;2023-05-10T14:18:13;3.03;;;1.05;;
49626;SDS011;35527;54.616;39.786;2023-05-10T14:21:17;2.80;;;1.42;;
49626;SDS011;35527;54.616;39.786;2023-05-10T14:24:19;4.10;;;1.30;;
49626;SDS011;35527;54.616;39.786;2023-05-10T14:27:23;3.72;;;1.30;;
49626;SDS011;35527;54.616;39.786;2023-05-10T14:30:26;3.53;;;1.63;;
49626;SDS011;35527;54.616;39.786;2023-05-10T14:33:29;3.58;;;1.30;;
49626;SDS011;35527;54.616;39.786;2023-05-10T14:36:32;3.53;;;1.50;;
49626;SDS011;35527;54.616;39.786;2023-05-10T14:39:40;2.65;;;1.48;;
49626;SDS011;35527;54.616;39.786;2023-05-10T14:42:44;3.08;;;1.50;;
49626;SDS011;35527;54.616;39.786;2023-05-10T14:45:53;3.22;;;1.20;;
49626;SDS011;35527;54.616;39.786;2023-05-10T14:48:56;3.13;;;1.20;;
49626;SDS011;35527;54.616;39.786;2023-05-10T14:52:01;4.07;;;1.63;;
49626;SDS011;35527;54.616;39.786;2023-05-10T14:56:00;3.53;;;1.50;;
49626;SDS011;35527;54.616;39.786;2023-05-10T14:59:04;5.15;;;1.67;;
49626;SDS011;35527;54.616;39.786;2023-05-10T15:02:10;3.03;;;1.30;;
49626;SDS011;35527;54.616;39.786;2023-05-10T15:05:14;3.45;;;1.52;;
49626;SDS011;35527;54.616;39.786;2023-05-10T15:08:18;3.38;;;1.40;;
49626;SDS011;35527;54.616;39.786;2023-05-10T15:11:27;4.45;;;1.50;;
49626;SDS011;35527;54.616;39.786;2023-05-10T15:14:32;2.97;;;1.30;;
49626;SDS011;35527;54.616;39.786;2023-05-10T15:17:39;5.45;;;1.40;;
49626;SDS011;35527;54.616;39.786;2023-05-10T15:20:45;3.22;;;1.20;;
49626;SDS011;35527;54.616;39.786;2023-05-10T15:23:48;3.90;;;1.23;;
49626;SDS011;35527;54.616;39.786;2023-05-10T15:26:55;3.38;;;1.40;;
49626;SDS011;35527;54.616;39.786;2023-05-10T15:29:59;3.35;;;1.45;;
49626;SDS011;35527;54.616;39.786;2023-05-10T15:33:02;2.88;;;0.98;;
49626;SDS011;35527;54.616;39.786;2023-05-10T15:36:08;3.38;;;1.40;;
49626;SDS011;35527;54.616;39.786;2023-05-10T15:39:13;2.90;;;1.13;;
49626;SDS011;35527;54.616;39.786;2023-05-10T15:42:23;4.47;;;1.45;;
49626;SDS011;35527;54.616;39.786;2023-05-10T15:45:25;4.60;;;1.40;;
49626;SDS011;35527;54.616;39.786;2023-05-10T15:48:31;4.53;;;1.40;;
49626;SDS011;35527;54.616;39.786;2023-05-10T15:51:39;6.07;;;2.28;;
49626;SDS011;35527;54.616;39.786;2023-05-10T15:54:46;5.20;;;1.88;;
49626;SDS011;35527;54.616;39.786;2023-05-10T15:57:49;4.72;;;1.55;;
49626;SDS011;35527;54.616;39.786;2023-05-10T16:00:54;6.68;;;2.40;;
49626;SDS011;35527;54.616;39.786;2023-05-10T16:03:58;7.25;;;3.40;;
49626;SDS011;35527;54.616;39.786;2023-05-10T16:07:02;4.95;;;1.80;;
49626;SDS011;35527;54.616;39.786;2023-05-10T16:10:04;5.03;;;1.67;;
49626;SDS011;35527;54.616;39.786;2023-05-10T16:13:08;5.43;;;1.50;;
49626;SDS011;35527;54.616;39.786;2023-05-10T16:16:13;7.68;;;1.98;;
49626;SDS011;35527;54.616;39.786;2023-05-10T16:19:19;5.38;;;1.98;;
49626;SDS011;35527;54.616;39.786;2023-05-10T16:22:22;5.47;;;1.92;;
49626;SDS011;35527;54.616;39.786;2023-05-10T16:25:31;5.70;;;2.05;;
49626;SDS011;35527;54.616;39.786;2023-05-10T16:28:34;6.43;;;2.47;;
49626;SDS011;35527;54.616;39.786;2023-05-10T16:31:37;10.13;;;3.90;;
49626;SDS011;35527;54.616;39.786;2023-05-10T16:34:40;7.35;;;3.38;;
49626;SDS011;35527;54.616;39.786;2023-05-10T16:37:49;8.18;;;1.95;;
49626;SDS011;35527;54.616;39.786;2023-05-10T16:40:53;5.93;;;1.63;;
49626;SDS011;35527;54.616;39.786;2023-05-10T16:44:00;7.15;;;1.80;;
49626;SDS011;35527;54.616;39.786;2023-05-10T16:47:03;6.72;;;1.70;;
49626;SDS011;35527;54.616;39.786;2023-05-10T16:50:08;9.27;;;2.47;;
49626;SDS011;35527;54.616;39.786;2023-05-10T16:53:11;6.97;;;2.70;;
49626;SDS011;35527;54.616;39.786;2023-05-10T16:56:15;5.75;;;2.13;;
49626;SDS011;35527;54.616;39.786;2023-05-10T16:59:22;9.85;;;4.20;;
49626;SDS011;35527;54.616;39.786;2023-05-10T17:02:30;14.43;;;3.90;;
49626;SDS011;35527;54.616;39.786;2023-05-10T17:05:35;6.70;;;3.08;;
49626;SDS011;35527;54.616;39.786;2023-05-10T17:08:44;7.72;;;2.55;;
49626;SDS011;35527;54.616;39.786;2023-05-10T17:11:49;10.18;;;2.75;;
49626;SDS011;35527;54.616;39.786;2023-05-10T17:14:56;6.25;;;2.45;;
49626;SDS011;35527;54.616;39.786;2023-05-10T17:18:03;9.35;;;2.13;;
49626;SDS011;35527;54.616;39.786;2023-05-10T17:21:13;6.40;;;2.20;;
49626;SDS011;35527;54.616;39.786;2023-05-10T17:24:18;6.88;;;2.72;;
49626;SDS011;35527;54.616;39.786;2023-05-10T17:27:22;8.85;;;3.00;;
49626;SDS011;35527;54.616;39.786;2023-05-10T17:33:34;9.80;;;2.72;;
49626;SDS011;35527;54.616;39.786;2023-05-10T17:36:38;16.92;;;4.03;;
49626;SDS011;35527;54.616;39.786;2023-05-10T17:39:44;11.85;;;2.70;;
49626;SDS011;35527;54.616;39.786;2023-05-10T17:42:47;9.02;;;2.85;;
49626;SDS011;35527;54.616;39.786;2023-05-10T17:45:51;6.88;;;2.20;;
49626;SDS011;35527;54.616;39.786;2023-05-10T17:48:58;5.75;;;2.17;;
49626;SDS011;35527;54.616;39.786;2023-05-10T17:52:04;5.35;;;2.03;;
49626;SDS011;35527;54.616;39.786;2023-05-10T17:55:08;10.45;;;2.55;;
49626;SDS011;35527;54.616;39.786;2023-05-10T17:58:12;5.13;;;1.90;;
49626;SDS011;35527;54.616;39.786;2023-05-10T18:01:20;6.15;;;1.90;;
49626;SDS011;35527;54.616;39.786;2023-05-10T18:04:24;9.30;;;2.40;;
49626;SDS011;35527;54.616;39.786;2023-05-10T18:07:27;9.13;;;3.05;;
49626;SDS011;35527;54.616;39.786;2023-05-10T18:10:34;12.63;;;3.28;;
49626;SDS011;35527;54.616;39.786;2023-05-10T18:13:41;10.75;;;2.97;;
49626;SDS011;35527;54.616;39.786;2023-05-10T18:16:44;13.40;;;3.45;;
49626;SDS011;35527;54.616;39.786;2023-05-10T18:19:47;14.45;;;4.13;;
49626;SDS011;35527;54.616;39.786;2023-05-10T18:22:53;9.73;;;4.38;;
49626;SDS011;35527;54.616;39.786;2023-05-10T18:25:57;13.70;;;4.60;;
49626;SDS011;35527;54.616;39.786;2023-05-10T18:29:03;13.68;;;4.20;;
49626;SDS011;35527;54.616;39.786;2023-05-10T18:32:05;8.18;;;3.72;;
49626;SDS011;35527;54.616;39.786;2023-05-10T18:35:13;9.00;;;2.95;;
49626;SDS011;35527;54.616;39.786;2023-05-10T18:38:15;7.20;;;3.03;;
49626;SDS011;35527;54.616;39.786;2023-05-10T18:41:20;9.52;;;2.50;;
49626;SDS011;35527;54.616;39.786;2023-05-10T18:44:24;8.30;;;3.25;;
49626;SDS011;35527;54.616;39.786;2023-05-10T18:47:29;5.85;;;2.40;;
49626;SDS011;35527;54.616;39.786;2023-05-10T18:50:32;6.28;;;2.35;;
49626;SDS011;35527;54.616;39.786;2023-05-10T18:53:37;8.60;;;3.23;;
49626;SDS011;35527;54.616;39.786;2023-05-10T18:56:44;10.48;;;2.90;;
49626;SDS011;35527;54.616;39.786;2023-05-10T18:59:49;6.18;;;3.20;;
49626;SDS011;35527;54.616;39.786;2023-05-10T19:02:51;8.02;;;3.45;;
49626;SDS011;35527;54.616;39.786;2023-05-10T19:05:55;8.15;;;3.35;;
49626;SDS011;35527;54.616;39.786;2023-05-10T19:08:58;7.88;;;4.10;;
49626;SDS011;35527;54.616;39.786;2023-05-10T19:12:08;7.13;;;2.63;;
49626;SDS011;35527;54.616;39.786;2023-05-10T19:15:11;5.97;;;2.65;;
49626;SDS011;35527;54.616;39.786;2023-05-10T19:18:15;5.65;;;2.85;;
49626;SDS011;35527;54.616;39.786;2023-05-10T19:21:18;10.73;;;2.90;;
49626;SDS011;35527;54.616;39.786;2023-05-10T19:28:21;12.75;;;4.45;;